KTEB/TEB METAR and TAF weather

Enter ICAO airport designator
Station Type Date Time Source
KTEB METAR 2021/09/23 23:51 UTC NOAA

KTEB 232351Z 22009KT 1 1/2SM TSRA BR SCT006 BKN019 OVC025 21/20 A2992 RMK AO2 LTG DSNT N AND S AND NW TSE2252B44 SLP130 P0035 60103 T02110200 10300 20211 53018


Station Type Date Time Source
KTEB Decoded METAR 2021/09/23 23:51 UTC NOAA

TETERBORO AIRPORT, NJ, United States (KTEB) 40-52N 74-03W 7M
Sep 23, 2021 - 07:51 PM EDT / 2021.09.23 2351 UTC
Wind: from the SW (220 degrees) at 10 MPH (9 KT):0
Visibility: 1 1/2 mile(s):0
Sky conditions: overcast
Weather: rain with thunder; mist; Lightning observed
Precipitation last hour: 0.35 inches
Temperature: 70.0 F (21.1 C)
Dew Point: 68.0 F (20.0 C)
Relative Humidity: 93%
Pressure (altimeter): 29.92 in. Hg (1013 hPa)
Pressure tendency: 0.05 inches (1.8 hPa) higher than three hours ago
ob: KTEB 232351Z 22009KT 1 1/2SM TSRA BR SCT006 BKN019 OVC025 21/20 A2992 RMK AO2 LTG DSNT N AND S AND NW TSE2252B44 SLP130 P0035 60103 T02110200 10300 20211 53018
cycle: 0

Station Type Date Time Source
KTEB TAF 2021/09/23 22:33 UTC NOAA

TAF
AMD KTEB 232131Z 2322/2424 16010G26KT 5SM SHRA BR SCT008 OVC030
TEMPO 2322/2324 18020G32KT 1 1/2SM +TSRA BR BKN008CB
FM240700 32006KT 5SM -SHRA BR OVC017
FM241400 32007KT P6SM OVC035
FM241800 26007KT P6SM SCT050 SCT250

Example: see airport list